Time;durP1;ratioP1;P1;durP2;ratioP2;P2;SDS_P1;SDS_P2;PMS_P1;PMS_P2;Temp;Humidity;BMP_temperature;BMP_pressure;BME280_temperature;BME280_humidity;BME280_pressure;Samples;Min_cycle;Max_cycle;Signal;HPM_P1;HPM_P2
2021/10/25 00:01:23;;;;;;;17.70;11.52;;;7.40;99.70;;;;;;5050800;28;20553;-51
2021/10/25 00:03:48;;;;;;;17.60;10.98;;;7.30;99.70;;;;;;5053719;28;20064;-48
2021/10/25 00:06:14;;;;;;;17.10;11.68;;;7.30;99.70;;;;;;5053573;28;20167;-48
2021/10/25 00:08:40;;;;;;;21.23;11.10;;;7.30;99.80;;;;;;5053979;28;20037;-51
2021/10/25 00:11:05;;;;;;;18.63;11.88;;;7.30;99.80;;;;;;5053379;28;20045;-50
2021/10/25 00:13:31;;;;;;;18.23;12.32;;;7.30;99.90;;;;;;5053594;28;20044;-48
2021/10/25 00:15:57;;;;;;;22.17;11.25;;;7.30;99.80;;;;;;5053306;28;20041;-48
2021/10/25 00:18:22;;;;;;;19.92;11.10;;;7.30;99.90;;;;;;5045351;28;20028;-48
2021/10/25 00:20:48;;;;;;;21.25;11.80;;;7.30;99.90;;;;;;5053754;28;20488;-48
2021/10/25 00:23:13;;;;;;;17.73;11.50;;;7.20;99.90;;;;;;5053880;28;20041;-49
2021/10/25 00:25:40;;;;;;;18.08;11.73;;;7.20;99.90;;;;;;5047743;28;20048;-48
2021/10/25 00:28:06;;;;;;;16.77;12.05;;;7.20;99.90;;;;;;5053012;28;20500;-51
2021/10/25 00:30:31;;;;;;;19.70;11.40;;;7.20;99.90;;;;;;5053687;28;20036;-51
2021/10/25 00:32:57;;;;;;;18.00;12.02;;;7.20;99.90;;;;;;5045181;28;20040;-51
2021/10/25 00:35:22;;;;;;;19.17;11.70;;;7.20;99.90;;;;;;5053443;28;20404;-50
2021/10/25 00:37:48;;;;;;;18.05;12.38;;;7.20;99.90;;;;;;5046525;28;20033;-51
2021/10/25 00:40:14;;;;;;;17.70;12.00;;;7.20;99.90;;;;;;5048672;28;20496;-49
2021/10/25 00:42:40;;;;;;;17.58;11.70;;;7.20;99.90;;;;;;5053308;28;20338;-51
2021/10/25 00:45:06;;;;;;;23.25;11.82;;;7.10;99.90;;;;;;5050784;28;20516;-50
2021/10/25 00:47:32;;;;;;;21.25;12.27;;;7.10;99.90;;;;;;5053204;28;20073;-51
2021/10/25 00:49:57;;;;;;;18.40;11.63;;;7.10;99.90;;;;;;5053585;28;20072;-50
2021/10/25 00:52:23;;;;;;;18.83;11.95;;;7.10;99.90;;;;;;5052621;28;20029;-51
2021/10/25 00:54:49;;;;;;;20.73;11.68;;;7.10;99.90;;;;;;5053226;28;20040;-51
2021/10/25 00:57:14;;;;;;;18.75;11.50;;;7.10;99.90;;;;;;5052475;28;20516;-53
2021/10/25 00:59:40;;;;;;;20.13;12.15;;;7.10;99.90;;;;;;5052596;28;20049;-50
2021/10/25 01:02:06;;;;;;;19.60;11.77;;;7.10;99.90;;;;;;5053087;28;20067;-51
2021/10/25 01:04:32;;;;;;;17.00;11.63;;;7.00;99.90;;;;;;5052754;28;20029;-49
2021/10/25 01:06:59;;;;;;;17.77;11.93;;;7.10;99.90;;;;;;5052099;28;20029;-51
2021/10/25 01:09:25;;;;;;;21.27;12.45;;;7.10;99.90;;;;;;5052536;28;20029;-53
2021/10/25 01:11:51;;;;;;;18.50;12.35;;;7.10;99.90;;;;;;5051984;28;20103;-51
2021/10/25 01:14:17;;;;;;;20.63;12.13;;;7.10;99.90;;;;;;5052504;28;20037;-50
2021/10/25 01:16:43;;;;;;;19.02;12.32;;;7.00;99.90;;;;;;5052381;28;20033;-52
2021/10/25 01:19:09;;;;;;;21.50;11.95;;;7.00;99.90;;;;;;5052822;28;20033;-51
2021/10/25 01:21:34;;;;;;;18.85;12.00;;;7.00;99.90;;;;;;5042741;28;20047;-51
2021/10/25 01:24:00;;;;;;;18.20;12.63;;;7.00;99.90;;;;;;5052338;28;20123;-51
2021/10/25 01:26:26;;;;;;;17.88;12.13;;;7.00;99.90;;;;;;5046143;28;20044;-51
2021/10/25 01:28:53;;;;;;;19.30;11.98;;;6.90;99.90;;;;;;5052001;28;20053;-53
2021/10/25 01:31:21;;;;;;;19.70;11.70;;;6.90;99.90;;;;;;5052691;28;20107;-50
2021/10/25 01:33:51;;;;;;;17.25;11.70;;;6.90;99.90;;;;;;5052193;28;20086;-51
2021/10/25 01:36:17;;;;;;;20.88;12.18;;;6.90;99.90;;;;;;5051955;28;20029;-50
2021/10/25 01:38:43;;;;;;;21.70;12.82;;;6.90;99.90;;;;;;5049187;28;20075;-53
2021/10/25 01:41:09;;;;;;;20.00;12.23;;;6.90;99.90;;;;;;5050711;28;20033;-51
2021/10/25 01:43:36;;;;;;;21.30;12.55;;;6.90;99.90;;;;;;5047916;28;20076;-52
2021/10/25 01:46:05;;;;;;;19.95;12.23;;;6.90;99.90;;;;;;5047900;28;20044;-53
2021/10/25 01:48:31;;;;;;;18.60;12.88;;;6.90;99.90;;;;;;5048695;28;20040;-51
2021/10/25 01:50:56;;;;;;;21.98;12.55;;;6.90;99.90;;;;;;5051678;28;20405;-51
2021/10/25 01:53:22;;;;;;;17.90;12.55;;;6.90;99.90;;;;;;5052106;28;20418;-53
2021/10/25 01:55:56;;;;;;;18.65;12.68;;;6.80;99.90;;;;;;5051073;28;20512;-53
2021/10/25 01:58:21;;;;;;;17.33;11.82;;;6.80;99.90;;;;;;5052282;28;20077;-51
2021/10/25 02:00:47;;;;;;;19.70;11.95;;;6.80;99.90;;;;;;5051848;28;20064;-51
2021/10/25 02:03:13;;;;;;;20.73;12.50;;;6.80;99.90;;;;;;5052091;28;20039;-53
2021/10/25 02:05:39;;;;;;;16.77;12.10;;;6.80;99.90;;;;;;5051150;28;20488;-53
2021/10/25 02:08:06;;;;;;;19.45;12.77;;;6.80;99.90;;;;;;5043028;28;20047;-51
2021/10/25 02:10:31;;;;;;;20.58;12.30;;;6.80;99.90;;;;;;5051806;28;20548;-51
2021/10/25 02:12:57;;;;;;;18.67;12.85;;;6.80;99.90;;;;;;5049881;28;20144;-48
2021/10/25 02:15:22;;;;;;;21.58;12.32;;;6.80;99.90;;;;;;5051400;28;20511;-49
2021/10/25 02:17:48;;;;;;;20.20;12.80;;;6.80;99.90;;;;;;5051634;28;20029;-48
2021/10/25 02:20:13;;;;;;;22.38;13.07;;;6.80;99.90;;;;;;5051754;28;20111;-50
2021/10/25 02:22:39;;;;;;;20.77;13.30;;;6.80;99.90;;;;;;5051579;28;20068;-48
2021/10/25 02:25:06;;;;;;;20.08;12.98;;;6.70;99.90;;;;;;5034417;28;20467;-51
2021/10/25 02:27:31;;;;;;;23.20;13.02;;;6.80;99.90;;;;;;5051485;28;20073;-49
2021/10/25 02:29:57;;;;;;;19.90;12.27;;;6.80;99.90;;;;;;5051310;28;20064;-51
2021/10/25 02:32:23;;;;;;;25.42;12.52;;;6.80;99.90;;;;;;5051415;28;20041;-48
2021/10/25 02:34:49;;;;;;;20.00;12.43;;;6.70;99.90;;;;;;5051436;28;20095;-48
2021/10/25 02:37:15;;;;;;;20.10;12.07;;;6.80;99.90;;;;;;5051408;28;20431;-47
2021/10/25 02:39:41;;;;;;;17.33;12.60;;;6.70;99.90;;;;;;5050982;28;20451;-49
2021/10/25 02:42:07;;;;;;;20.70;12.70;;;6.70;99.90;;;;;;5048410;28;20041;-48
2021/10/25 02:44:32;;;;;;;19.90;12.80;;;6.80;99.90;;;;;;5051240;28;20047;-48
2021/10/25 02:46:58;;;;;;;21.27;12.77;;;6.70;99.90;;;;;;5050428;28;20044;-48
2021/10/25 02:49:24;;;;;;;23.80;13.23;;;6.70;99.90;;;;;;5051230;28;20082;-48
2021/10/25 02:51:50;;;;;;;20.25;13.05;;;6.70;99.90;;;;;;5051066;28;20044;-54
2021/10/25 02:54:16;;;;;;;21.45;12.25;;;6.70;99.90;;;;;;5050403;28;20056;-51
2021/10/25 02:56:41;;;;;;;18.90;12.75;;;6.70;99.90;;;;;;5050869;28;20489;-53
2021/10/25 02:59:09;;;;;;;22.20;13.25;;;6.70;99.90;;;;;;5050554;28;20112;-50
2021/10/25 03:01:39;;;;;;;22.77;12.95;;;6.80;99.90;;;;;;5051049;28;20056;-51
2021/10/25 03:04:06;;;;;;;19.42;12.43;;;6.70;99.90;;;;;;5050561;28;20045;-50
2021/10/25 03:06:33;;;;;;;23.25;13.80;;;6.70;99.90;;;;;;5050070;28;20059;-52
2021/10/25 03:08:59;;;;;;;21.40;12.95;;;6.70;99.90;;;;;;5050655;28;20033;-51
2021/10/25 03:11:25;;;;;;;21.45;13.52;;;6.60;99.90;;;;;;5050818;28;20044;-50
2021/10/25 03:13:53;;;;;;;20.77;12.57;;;6.60;99.90;;;;;;5050818;28;20417;-50
2021/10/25 03:16:20;;;;;;;20.13;12.48;;;6.60;99.90;;;;;;5050240;28;20056;-51
2021/10/25 03:18:46;;;;;;;22.30;13.23;;;6.70;99.90;;;;;;5050264;28;20045;-54
2021/10/25 03:21:12;;;;;;;25.23;13.75;;;6.70;99.90;;;;;;5050121;28;20033;-53
2021/10/25 03:23:39;;;;;;;21.40;13.45;;;6.70;99.90;;;;;;5050803;28;20033;-50
2021/10/25 03:26:05;;;;;;;20.35;13.10;;;6.70;99.90;;;;;;5050065;28;20115;-50
2021/10/25 03:28:31;;;;;;;20.08;13.18;;;6.70;99.90;;;;;;5042711;28;20569;-51
2021/10/25 03:30:57;;;;;;;17.15;12.55;;;6.70;99.90;;;;;;5050606;28;20037;-51
2021/10/25 03:33:23;;;;;;;21.15;13.48;;;6.70;99.90;;;;;;5032747;28;20048;-55
2021/10/25 03:35:49;;;;;;;18.58;13.25;;;6.70;99.90;;;;;;5052131;28;20405;-53
2021/10/25 03:38:16;;;;;;;20.45;13.13;;;6.70;99.90;;;;;;5054125;28;20049;-53
2021/10/25 03:40:45;;;;;;;23.13;12.88;;;6.70;99.90;;;;;;5045366;28;20400;-50
2021/10/25 03:43:12;;;;;;;22.92;12.95;;;6.70;99.90;;;;;;5048457;28;20405;-50
2021/10/25 03:48:36;;;;;;;21.13;12.48;;;6.70;99.90;;;;;;5014854;28;20895;-52
2021/10/25 03:51:01;;;;;;;21.30;13.52;;;6.70;99.90;;;;;;5050035;28;20045;-53
2021/10/25 03:53:36;;;;;;;24.35;13.70;;;6.80;99.90;;;;;;5051045;28;20523;-53
2021/10/25 04:04:35;;;;;;;19.60;12.95;;;6.90;99.90;;;;;;5005309;28;20044;-51
2021/10/25 04:26:22;;;;;;;19.45;12.77;;;7.30;99.90;;;;;;5084327;22;20095;-51
2021/10/25 04:28:48;;;;;;;22.58;13.10;;;7.30;99.90;;;;;;5055198;28;20048;-53
2021/10/25 04:31:14;;;;;;;19.65;12.02;;;7.40;99.90;;;;;;5058361;28;20041;-52
2021/10/25 04:33:39;;;;;;;20.83;12.57;;;7.40;99.90;;;;;;5058724;28;20395;-52
2021/10/25 04:36:05;;;;;;;21.75;13.05;;;7.40;99.90;;;;;;5051248;28;20116;-52
2021/10/25 04:38:31;;;;;;;16.70;12.70;;;7.40;99.90;;;;;;5054929;28;20481;-53
2021/10/25 04:40:56;;;;;;;21.15;12.82;;;7.50;99.90;;;;;;5052029;28;20024;-54
2021/10/25 04:43:22;;;;;;;19.73;13.57;;;7.50;99.90;;;;;;5048057;28;20096;-52
2021/10/25 04:45:48;;;;;;;20.45;12.77;;;7.50;99.90;;;;;;5060198;28;20550;-52
2021/10/25 04:48:14;;;;;;;19.67;13.57;;;7.50;99.90;;;;;;5055777;28;20044;-53
2021/10/25 04:50:41;;;;;;;19.60;13.05;;;7.60;99.90;;;;;;5053678;28;20497;-53
2021/10/25 04:53:06;;;;;;;20.67;12.43;;;7.60;99.90;;;;;;5036731;28;20041;-54
2021/10/25 04:55:32;;;;;;;20.80;12.40;;;7.60;99.90;;;;;;5053282;28;20136;-52
2021/10/25 04:57:57;;;;;;;20.35;12.90;;;7.70;99.90;;;;;;5058914;28;20462;-53
2021/10/25 05:00:23;;;;;;;18.20;12.02;;;7.70;99.90;;;;;;5053833;28;20039;-53
2021/10/25 05:02:49;;;;;;;19.13;12.55;;;7.80;99.90;;;;;;5051085;28;20086;-53
2021/10/25 05:05:14;;;;;;;18.95;11.60;;;7.80;99.90;;;;;;5050159;28;20294;-52
2021/10/25 05:07:40;;;;;;;20.83;12.60;;;7.80;99.90;;;;;;5051560;28;20028;-52
2021/10/25 05:10:05;;;;;;;17.90;11.98;;;7.80;99.90;;;;;;5060569;28;20033;-52
2021/10/25 05:12:32;;;;;;;18.92;12.35;;;7.80;99.90;;;;;;5058443;28;20074;-55
2021/10/25 05:14:58;;;;;;;19.42;12.48;;;7.90;99.90;;;;;;5059707;28;20124;-50
2021/10/25 05:17:24;;;;;;;19.75;12.20;;;7.90;99.90;;;;;;5054735;28;20108;-52
2021/10/25 05:19:51;;;;;;;22.45;12.43;;;7.90;99.90;;;;;;5049250;28;20037;-52
2021/10/25 05:22:17;;;;;;;17.67;11.50;;;7.90;99.90;;;;;;5061760;28;20051;-51
2021/10/25 05:24:44;;;;;;;19.30;12.05;;;7.90;99.90;;;;;;5050331;28;20084;-52
2021/10/25 05:27:11;;;;;;;17.17;11.98;;;7.90;99.90;;;;;;5042066;28;20083;-52
2021/10/25 05:29:37;;;;;;;20.75;12.40;;;7.90;99.90;;;;;;5055434;28;20041;-52
2021/10/25 05:32:03;;;;;;;21.98;12.52;;;8.00;99.90;;;;;;5055946;28;20033;-50
2021/10/25 05:34:29;;;;;;;20.92;12.18;;;7.90;99.90;;;;;;5053998;28;20041;-52
2021/10/25 05:36:55;;;;;;;23.98;12.52;;;8.00;99.90;;;;;;5044349;28;20400;-50
2021/10/25 05:39:21;;;;;;;17.83;13.20;;;8.00;99.90;;;;;;5059317;28;20477;-49
2021/10/25 05:41:47;;;;;;;17.55;11.65;;;8.00;99.90;;;;;;5052227;28;20037;-49
2021/10/25 05:44:12;;;;;;;18.98;11.27;;;8.00;99.90;;;;;;5068279;28;20068;-49
2021/10/25 05:46:39;;;;;;;18.90;11.88;;;8.10;99.90;;;;;;5057009;28;20029;-52
2021/10/25 05:49:05;;;;;;;17.23;12.13;;;8.10;99.90;;;;;;5047199;28;20041;-51
2021/10/25 05:51:32;;;;;;;17.38;11.45;;;8.10;99.90;;;;;;5048548;28;20094;-51
2021/10/25 05:54:00;;;;;;;20.30;12.85;;;8.10;99.90;;;;;;5050373;28;20036;-52
2021/10/25 05:56:27;;;;;;;19.30;12.05;;;8.10;99.90;;;;;;5029873;28;20132;-53
2021/10/25 05:58:52;;;;;;;19.17;12.27;;;8.10;99.90;;;;;;5030627;28;20041;-53
2021/10/25 06:01:21;;;;;;;19.90;12.07;;;8.10;99.90;;;;;;5030212;28;20126;-52
2021/10/25 06:03:48;;;;;;;18.23;11.95;;;8.10;99.90;;;;;;5066152;28;20044;-52
2021/10/25 06:06:14;;;;;;;19.45;11.85;;;8.10;99.90;;;;;;5060955;28;20167;-52
2021/10/25 06:08:40;;;;;;;20.00;12.50;;;8.10;99.90;;;;;;5050003;28;20483;-54
2021/10/25 06:11:07;;;;;;;18.90;11.48;;;8.10;99.90;;;;;;5043689;28;20415;-51
2021/10/25 06:13:38;;;;;;;18.23;12.02;;;8.20;99.90;;;;;;5045311;28;20083;-54
2021/10/25 06:16:13;;;;;;;18.08;12.18;;;8.20;99.90;;;;;;5048513;28;20036;-51
2021/10/25 06:18:41;;;;;;;21.13;12.63;;;8.20;99.90;;;;;;5040870;28;20048;-52
2021/10/25 06:21:07;;;;;;;19.45;12.15;;;8.20;99.90;;;;;;5051533;28;20033;-52
2021/10/25 06:23:35;;;;;;;20.20;12.07;;;8.20;99.90;;;;;;5054098;28;20043;-51
2021/10/25 06:26:03;;;;;;;19.65;12.10;;;8.20;99.90;;;;;;5050792;28;20060;-51
2021/10/25 06:28:28;;;;;;;21.58;12.32;;;8.20;99.90;;;;;;5046158;28;20041;-52
2021/10/25 06:31:01;;;;;;;19.17;11.27;;;8.20;99.90;;;;;;5059070;28;20106;-53
2021/10/25 06:33:27;;;;;;;19.83;12.85;;;8.20;99.90;;;;;;5059777;28;20082;-53
2021/10/25 06:36:11;;;;;;;16.02;11.45;;;8.20;99.90;;;;;;5050436;28;20098;-52
2021/10/25 06:38:43;;;;;;;20.27;11.70;;;8.30;99.90;;;;;;5053113;28;20032;-52
2021/10/25 06:41:09;;;;;;;20.38;12.70;;;8.30;99.90;;;;;;5037684;28;20044;-51
2021/10/25 06:43:34;;;;;;;16.63;11.27;;;8.30;99.90;;;;;;5057236;28;20041;-51
2021/10/25 06:46:00;;;;;;;18.70;11.50;;;8.40;99.90;;;;;;5046005;28;20066;-49
2021/10/25 06:48:28;;;;;;;20.02;12.25;;;8.40;99.90;;;;;;5047236;28;20080;-53
2021/10/25 06:50:54;;;;;;;18.83;11.65;;;8.40;99.90;;;;;;5044715;28;20063;-50
2021/10/25 06:53:20;;;;;;;21.55;12.13;;;8.40;99.90;;;;;;5053184;28;20041;-52
2021/10/25 06:55:46;;;;;;;19.02;10.93;;;8.50;99.90;;;;;;5063289;28;20033;-51
2021/10/25 06:58:12;;;;;;;20.55;12.45;;;8.50;99.90;;;;;;5048710;28;20198;-52
2021/10/25 07:00:38;;;;;;;18.02;11.38;;;8.50;99.90;;;;;;5047213;28;20564;-52
2021/10/25 07:03:04;;;;;;;18.27;11.88;;;8.50;99.90;;;;;;5057287;28;20041;-54
2021/10/25 07:05:32;;;;;;;20.02;12.55;;;8.50;99.90;;;;;;5062294;28;20040;-52
2021/10/25 07:07:58;;;;;;;15.63;11.02;;;8.50;99.90;;;;;;5036107;28;20041;-52
2021/10/25 07:10:25;;;;;;;18.30;11.38;;;8.50;99.90;;;;;;5047354;28;20535;-51
2021/10/25 07:12:51;;;;;;;14.75;10.75;;;8.60;99.90;;;;;;5047690;28;20057;-51
2021/10/25 07:15:18;;;;;;;17.58;11.15;;;8.60;99.90;;;;;;5045225;28;20053;-54
2021/10/25 07:17:57;;;;;;;22.40;12.82;;;8.60;99.90;;;;;;5046619;28;20049;-52
2021/10/25 07:59:21;;;;;;;17.90;10.80;;;8.70;99.90;;;;;;5044607;28;20114;-54
2021/10/25 08:08:37;;;;;;;18.17;11.43;;;9.20;99.90;;;;;;5048746;28;20295;-52
2021/10/25 08:11:10;;;;;;;18.77;10.90;;;9.20;99.90;;;;;;5056089;28;20064;-52
2021/10/25 08:13:45;;;;;;;19.30;11.60;;;9.30;99.90;;;;;;5053805;28;20048;-49
2021/10/25 08:21:15;;;;;;;16.33;11.30;;;9.30;99.90;;;;;;5055808;28;20068;-52
2021/10/25 08:23:41;;;;;;;20.00;10.82;;;9.30;99.90;;;;;;5047873;28;20045;-52
2021/10/25 08:26:11;;;;;;;18.83;11.57;;;9.40;99.90;;;;;;5057465;28;20033;-51
2021/10/25 08:28:38;;;;;;;18.63;11.68;;;9.40;99.90;;;;;;5059470;28;20049;-50
2021/10/25 08:31:06;;;;;;;19.58;11.13;;;9.40;99.90;;;;;;5057414;28;20040;-50
2021/10/25 08:36:25;;;;;;;22.38;10.65;;;9.50;99.90;;;;;;5049323;28;20049;-50
2021/10/25 08:41:45;;;;;;;19.10;11.45;;;9.50;99.90;;;;;;4982586;28;20050;-49
2021/10/25 08:44:13;;;;;;;17.27;11.30;;;9.60;99.90;;;;;;5052066;28;20029;-51
2021/10/25 08:46:39;;;;;;;19.52;10.88;;;9.60;99.90;;;;;;5040553;28;20041;-51
2021/10/25 08:49:04;;;;;;;17.20;11.32;;;9.60;99.90;;;;;;5052846;28;20033;-50
2021/10/25 08:51:30;;;;;;;18.17;11.13;;;9.70;99.90;;;;;;5055771;28;20029;-48
2021/10/25 08:53:55;;;;;;;16.77;10.75;;;9.70;99.90;;;;;;5057171;28;20450;-52
2021/10/25 08:56:21;;;;;;;17.75;11.30;;;9.70;99.90;;;;;;5049820;28;20350;-49
2021/10/25 08:58:50;;;;;;;17.20;10.82;;;9.70;99.90;;;;;;5047941;28;20040;-49
2021/10/25 09:01:23;;;;;;;17.00;10.93;;;9.80;99.90;;;;;;5036101;28;20049;-51
2021/10/25 09:04:07;;;;;;;20.85;10.88;;;9.80;99.90;;;;;;5042884;28;20443;-49
2021/10/25 09:06:32;;;;;;;21.35;10.93;;;9.80;99.90;;;;;;5043736;28;20041;-52
2021/10/25 09:09:04;;;;;;;14.93;10.43;;;9.80;99.90;;;;;;5051042;28;20087;-50
2021/10/25 09:11:30;;;;;;;16.90;10.83;;;9.90;99.90;;;;;;5051300;28;20037;-52
2021/10/25 09:13:56;;;;;;;17.55;10.52;;;9.90;99.90;;;;;;5053858;28;20112;-51
2021/10/25 09:16:22;;;;;;;16.60;11.07;;;9.90;99.90;;;;;;5051095;28;20565;-51
2021/10/25 09:18:48;;;;;;;17.75;10.38;;;9.90;99.90;;;;;;5053125;28;20124;-51
2021/10/25 09:21:14;;;;;;;16.08;10.52;;;10.00;99.90;;;;;;5060208;28;20408;-48
2021/10/25 09:23:45;;;;;;;18.63;11.52;;;10.00;99.90;;;;;;5033088;28;20040;-49
2021/10/25 09:26:14;;;;;;;17.47;10.73;;;10.00;99.90;;;;;;5060668;28;20515;-49
2021/10/25 09:28:52;;;;;;;18.75;11.13;;;10.00;99.90;;;;;;5059871;28;20117;-50
2021/10/25 09:31:25;;;;;;;18.55;11.13;;;10.00;99.90;;;;;;5056055;28;20048;-49
2021/10/25 09:33:58;;;;;;;17.42;10.15;;;10.10;99.90;;;;;;5059672;28;20033;-51
2021/10/25 09:36:33;;;;;;;22.40;11.25;;;10.10;99.90;;;;;;5039776;28;20120;-49
2021/10/25 09:39:17;;;;;;;16.98;10.40;;;10.10;99.90;;;;;;5048333;28;20373;-50
2021/10/25 09:49:51;;;;;;;17.95;12.02;;;10.20;99.90;;;;;;5050775;28;20152;-52
2021/10/25 09:52:17;;;;;;;19.55;12.75;;;10.20;99.90;;;;;;5041758;28;20429;-51
2021/10/25 09:54:43;;;;;;;22.80;14.35;;;10.10;99.90;;;;;;5046111;28;20038;-49
2021/10/25 09:57:12;;;;;;;24.88;14.00;;;10.10;99.90;;;;;;5032864;28;20056;-50
2021/10/25 09:59:56;;;;;;;21.55;13.70;;;10.10;99.90;;;;;;5049116;28;20071;-49
2021/10/25 10:02:23;;;;;;;22.90;14.50;;;10.10;99.90;;;;;;5050960;28;20381;-51
2021/10/25 10:04:58;;;;;;;25.30;14.25;;;10.10;99.90;;;;;;5055215;28;20048;-48
2021/10/25 10:07:25;;;;;;;20.80;13.23;;;10.10;99.90;;;;;;5048578;28;20029;-49
2021/10/25 10:09:51;;;;;;;24.92;13.13;;;10.10;99.90;;;;;;5042323;28;20544;-49
2021/10/25 10:12:19;;;;;;;25.83;14.43;;;10.20;99.90;;;;;;5053128;28;20036;-50
2021/10/25 10:14:51;;;;;;;24.73;15.05;;;10.20;99.90;;;;;;5024305;28;20167;-52
2021/10/25 10:17:31;;;;;;;23.58;14.07;;;10.20;99.90;;;;;;5051489;28;20077;-50
2021/10/25 10:20:10;;;;;;;27.45;15.25;;;10.20;99.90;;;;;;5058008;28;20028;-49
2021/10/25 10:22:41;;;;;;;29.42;14.00;;;10.30;99.90;;;;;;5053159;28;20504;-52
2021/10/25 10:25:08;;;;;;;28.95;15.55;;;10.20;99.90;;;;;;5051882;28;20043;-50
2021/10/25 10:27:35;;;;;;;24.92;14.65;;;10.20;99.90;;;;;;5055259;28;20447;-53
2021/10/25 10:30:00;;;;;;;25.48;16.30;;;10.30;99.90;;;;;;5052611;28;20029;-52
2021/10/25 10:32:30;;;;;;;28.88;16.15;;;10.30;99.90;;;;;;5061938;28;20102;-53
2021/10/25 10:35:02;;;;;;;29.20;16.42;;;10.30;99.90;;;;;;5051974;28;20037;-51
2021/10/25 10:37:30;;;;;;;27.60;15.95;;;10.30;99.90;;;;;;5044754;28;20114;-52
2021/10/25 10:40:12;;;;;;;26.35;16.33;;;10.30;99.90;;;;;;5049348;28;20120;-49
2021/10/25 10:42:43;;;;;;;29.95;17.17;;;10.30;99.90;;;;;;5042959;28;20038;-53
2021/10/25 10:45:10;;;;;;;27.27;16.27;;;10.30;99.90;;;;;;5061587;28;20024;-52
2021/10/25 10:47:40;;;;;;;27.25;15.77;;;10.30;99.90;;;;;;5050392;28;20048;-51
2021/10/25 10:50:43;;;;;;;23.00;15.07;;;10.40;99.90;;;;;;5045338;28;20032;-48
2021/10/25 10:53:11;;;;;;;;;;;10.40;99.90;;;;;;5046178;28;20587;-49
2021/10/25 10:55:39;;;;;;;24.70;14.48;;;10.40;99.90;;;;;;5030706;28;19925;-49
2021/10/25 11:00:38;;;;;;;31.05;16.08;;;10.50;99.90;;;;;;5058809;28;20033;-48
2021/10/25 11:03:25;;;;;;;25.65;15.13;;;10.50;99.90;;;;;;5044291;28;20049;-48
2021/10/25 11:06:19;;;;;;;24.73;16.35;;;10.50;99.90;;;;;;5047587;28;20528;-48
2021/10/25 11:08:47;;;;;;;22.63;15.18;;;10.50;99.90;;;;;;5050551;28;20110;-49
2021/10/25 11:11:21;;;;;;;20.65;14.48;;;10.50;99.90;;;;;;5047124;28;20418;-52
2021/10/25 11:14:06;;;;;;;22.33;14.38;;;10.50;99.90;;;;;;5062662;28;20531;-52
2021/10/25 11:19:06;;;;;;;23.17;13.43;;;10.50;99.90;;;;;;5043721;28;20041;-52
2021/10/25 11:21:37;;;;;;;21.90;14.02;;;10.50;99.90;;;;;;5043470;28;20033;-51
2021/10/25 11:24:08;;;;;;;24.50;13.27;;;10.60;99.90;;;;;;5044928;28;20040;-50
2021/10/25 11:26:46;;;;;;;19.98;13.55;;;10.60;99.90;;;;;;5047111;28;20288;-52
2021/10/25 11:29:16;;;;;;;20.88;14.10;;;10.60;99.90;;;;;;5038773;28;20040;-52
2021/10/25 11:31:51;;;;;;;21.30;13.45;;;10.60;99.90;;;;;;5053198;28;20087;-51
2021/10/25 11:34:25;;;;;;;23.67;13.90;;;10.70;99.90;;;;;;5050641;28;20317;-52
2021/10/25 11:36:59;;;;;;;26.00;13.40;;;10.60;99.90;;;;;;5045172;28;20044;-49
2021/10/25 11:39:27;;;;;;;26.55;13.88;;;10.60;99.90;;;;;;5057949;28;20134;-49
2021/10/25 11:41:52;;;;;;;25.23;14.73;;;10.60;99.90;;;;;;5049890;28;20029;-49
2021/10/25 11:44:18;;;;;;;24.48;13.18;;;10.60;99.90;;;;;;5048340;28;20048;-52
2021/10/25 11:46:44;;;;;;;20.52;14.65;;;10.60;99.90;;;;;;5042957;28;20124;-49
2021/10/25 11:49:10;;;;;;;19.85;13.60;;;10.60;99.90;;;;;;5044615;28;20043;-49
2021/10/25 11:51:47;;;;;;;20.23;12.45;;;10.60;99.90;;;;;;5049047;28;20354;-50
2021/10/25 11:54:13;;;;;;;25.88;13.88;;;10.70;99.90;;;;;;5042322;28;20112;-53
2021/10/25 11:56:43;;;;;;;20.90;12.98;;;10.60;99.90;;;;;;5046799;28;20041;-49
2021/10/25 11:59:12;;;;;;;26.67;14.48;;;10.70;99.90;;;;;;5048210;28;20058;-49
2021/10/25 12:01:37;;;;;;;25.73;15.52;;;10.70;99.90;;;;;;5050713;28;20037;-48
2021/10/25 12:04:09;;;;;;;50.65;22.83;;;10.70;99.90;;;;;;5059297;28;20025;-51
2021/10/25 12:06:35;;;;;;;38.83;18.10;;;10.80;99.90;;;;;;5049903;28;20523;-52
2021/10/25 12:09:04;;;;;;;38.67;18.65;;;10.80;99.90;;;;;;5053600;28;20045;-50
2021/10/25 12:11:43;;;;;;;28.33;15.90;;;10.80;99.90;;;;;;5062114;28;20049;-49
2021/10/25 12:14:09;;;;;;;37.05;20.02;;;10.80;99.90;;;;;;5048236;28;20417;-51
2021/10/25 12:16:38;;;;;;;22.60;14.07;;;10.90;99.90;;;;;;5042590;28;20041;-49
2021/10/25 12:19:05;;;;;;;27.05;14.15;;;10.90;99.90;;;;;;5052299;28;20407;-49
2021/10/25 12:21:33;;;;;;;20.00;13.27;;;10.90;99.90;;;;;;5049990;28;20033;-48
2021/10/25 12:24:01;;;;;;;24.42;14.20;;;11.00;99.90;;;;;;5047955;28;20041;-48
2021/10/25 12:26:28;;;;;;;19.40;12.90;;;11.00;99.90;;;;;;5053890;28;20080;-51
2021/10/25 12:28:54;;;;;;;22.58;13.75;;;11.10;99.90;;;;;;5057510;28;20094;-53
2021/10/25 12:31:21;;;;;;;20.25;13.43;;;11.10;99.90;;;;;;5056756;28;20049;-52
2021/10/25 12:33:51;;;;;;;19.45;13.27;;;11.10;99.90;;;;;;5054291;28;20393;-49
2021/10/25 12:36:23;;;;;;;18.92;12.43;;;11.20;99.90;;;;;;5054230;28;20102;-49
2021/10/25 12:38:55;;;;;;;21.83;12.93;;;11.30;99.90;;;;;;5053745;28;20120;-52
2021/10/25 12:41:21;;;;;;;23.05;13.32;;;11.30;99.90;;;;;;5044672;28;20033;-51
2021/10/25 12:43:49;;;;;;;23.30;12.68;;;11.30;99.90;;;;;;5035413;28;20040;-48
2021/10/25 12:46:18;;;;;;;20.60;13.20;;;11.40;99.90;;;;;;5053263;28;20075;-48
2021/10/25 12:48:54;;;;;;;21.70;13.20;;;11.40;99.90;;;;;;5052953;28;20036;-51
2021/10/25 12:51:23;;;;;;;22.20;13.35;;;11.50;99.90;;;;;;5049518;28;20033;-52
2021/10/25 12:53:51;;;;;;;22.95;13.45;;;11.50;99.90;;;;;;5033311;28;20037;-51
2021/10/25 12:56:27;;;;;;;19.77;13.25;;;11.50;99.90;;;;;;5053042;28;20059;-49
2021/10/25 12:59:04;;;;;;;22.35;12.20;;;11.60;99.90;;;;;;5050818;28;20030;-50
2021/10/25 13:01:30;;;;;;;20.00;12.38;;;11.60;99.90;;;;;;5049418;28;20037;-48
2021/10/25 13:03:57;;;;;;;19.58;13.48;;;11.60;99.90;;;;;;5049479;28;20048;-52
2021/10/25 13:06:31;;;;;;;19.30;13.10;;;11.60;99.90;;;;;;5048211;28;20045;-52
2021/10/25 13:09:02;;;;;;;21.60;12.23;;;11.70;99.90;;;;;;5049919;28;20037;-52
2021/10/25 13:11:28;;;;;;;19.65;13.55;;;11.70;99.90;;;;;;5046935;28;20448;-49
2021/10/25 13:13:58;;;;;;;24.23;17.70;;;11.70;99.90;;;;;;5048981;28;20037;-48
2021/10/25 13:16:28;;;;;;;19.77;13.10;;;11.80;99.90;;;;;;5048443;28;20528;-52
2021/10/25 13:18:54;;;;;;;19.02;12.70;;;11.80;99.90;;;;;;5047474;28;20627;-53
2021/10/25 13:21:19;;;;;;;17.25;12.18;;;11.80;99.90;;;;;;5053110;28;20061;-49
2021/10/25 13:23:46;;;;;;;20.25;12.85;;;11.80;99.90;;;;;;5054093;28;20525;-51
2021/10/25 13:26:11;;;;;;;19.40;12.50;;;11.80;99.90;;;;;;5046517;28;20044;-51
2021/10/25 13:28:39;;;;;;;18.02;11.95;;;11.80;99.90;;;;;;5049363;28;20071;-51
2021/10/25 13:31:04;;;;;;;18.58;12.70;;;11.80;99.90;;;;;;5056004;28;20036;-49
2021/10/25 13:33:34;;;;;;;17.17;12.05;;;11.80;99.90;;;;;;5056516;28;20029;-49
2021/10/25 13:36:00;;;;;;;18.33;12.32;;;11.80;99.90;;;;;;5030847;28;20044;-52
2021/10/25 13:38:26;;;;;;;18.25;12.18;;;11.80;99.90;;;;;;5054261;28;20493;-51
2021/10/25 13:40:51;;;;;;;17.38;12.88;;;11.80;99.90;;;;;;5053688;28;20037;-52
2021/10/25 13:43:17;;;;;;;15.77;11.68;;;11.80;99.90;;;;;;5054183;28;20070;-51
2021/10/25 13:45:44;;;;;;;17.00;12.40;;;11.90;99.90;;;;;;5054567;28;20501;-49
2021/10/25 13:48:09;;;;;;;16.83;11.77;;;11.90;99.90;;;;;;5047052;28;20041;-52
2021/10/25 13:50:35;;;;;;;19.60;12.40;;;11.90;99.90;;;;;;5051177;28;20045;-49
2021/10/25 13:53:01;;;;;;;19.58;12.95;;;11.90;99.90;;;;;;5047251;28;20044;-52
2021/10/25 13:55:26;;;;;;;15.95;12.05;;;11.90;99.90;;;;;;5049061;28;20033;-49
2021/10/25 13:57:52;;;;;;;19.40;13.20;;;11.90;99.90;;;;;;5041084;28;20489;-48
2021/10/25 14:00:18;;;;;;;16.92;12.27;;;12.00;99.90;;;;;;5026613;28;20037;-51
2021/10/25 14:02:47;;;;;;;19.00;12.20;;;12.00;99.90;;;;;;5049043;28;20517;-52
2021/10/25 14:05:18;;;;;;;18.80;12.45;;;12.00;99.90;;;;;;5051369;28;20104;-52
2021/10/25 14:07:44;;;;;;;18.58;12.48;;;12.00;99.90;;;;;;5054599;28;20116;-50
2021/10/25 14:10:16;;;;;;;23.55;12.93;;;12.00;99.90;;;;;;5051782;28;20496;-54
2021/10/25 14:12:42;;;;;;;20.27;12.90;;;12.00;99.90;;;;;;5055754;28;20120;-49
2021/10/25 14:17:39;;;;;;;25.73;13.05;;;12.10;99.90;;;;;;5051626;28;20404;-49
2021/10/25 14:20:06;;;;;;;16.70;12.57;;;12.10;99.90;;;;;;5050002;28;20036;-50